Flood From: 21-02-2018 18:00 Until: 22-02-2018 16:00 warning for: Flood Level: Yellow info button

Although rather usual in this region, locally or potentially dangerous phenomena are expected. (such as local winds, summer thunderstorms, rising streams or high waves) Be aware and pay attention to the latest weather updates, especially if you carry out activities exposed to weather or close to a stream or shoreline. 


Meteo18 Weather Cam more information Meteo18 Weather Cam


Thunder radar more information blitzortung!


Rain radar more information rain snow radar


Visit our other weather sites:

Template documentation
and downloads

And another site



Weather Underground History page Text

Daily Summary for September 19, 2017 Units:  Both    English   Metric
« Previous Day
Next Day »
Daily Weekly Monthly Yearly Custom
  High: Low: Average:
Temperature: TemperatureC °F /  -17.8 °C 8.4 °F /  -13.1 °C 11 °F /  -11.7 °C
Dew Point: DewpointC °F /  -17.8 °C 7.5 °F /  -13.6 °C 8.8 °F /  -12.9 °C
Humidity: Humidity % 69 % 86 %
Wind Speed: WindSpeedKMH mph /  0 km/h - 2 mph /  3.2 km/h
Wind Gust: WindSpeedGustKMH mph /  0 km/h - -
Wind:- - WNW
Pressure: PressurehPa in /  0 hPa 1020.5 in /  34554.1 hPa -
Precipitation: 7.1 in /  180.34 mm    
Historical Graphs
 
 
Tabular Data for September 19, 2017
Time Temperature Dew Point Pressure Wind Wind Speed Wind Gust Humidity Rainfall Rate (Hourly)
TemperatureC °F /  -17.8 °C DewpointC °F /  -17.8 °C PressurehPa in /  0 hPa Calm     Humidity % HourlyPrecipMM in /  0 mm
00:02 10.6 °F /  -11.9 °C 8.2 °F /  -13.2 °C 1020.9 in /  34567.7 hPa Calm   1.6 mph /  2.6 km/h 85 % 0.0 in /  0 mm
00:07 10.7 °F /  -11.8 °C 8.1 °F /  -13.3 °C 1020.9 in /  34567.7 hPa Calm   6.4 mph /  10.3 km/h 84 % 0.0 in /  0 mm
00:12 10.7 °F /  -11.8 °C 8.1 °F /  -13.3 °C 1020.9 in /  34567.7 hPa Calm   6.4 mph /  10.3 km/h 84 % 0.0 in /  0 mm
00:17 10.7 °F /  -11.8 °C 8.1 °F /  -13.3 °C 1020.9 in /  34567.7 hPa Calm   6.4 mph /  10.3 km/h 84 % 0.0 in /  0 mm
00:22 10.6 °F /  -11.9 °C 8.2 °F /  -13.2 °C 1020.9 in /  34567.7 hPa Calm   4.8 mph /  7.7 km/h 85 % 0.0 in /  0 mm
00:27 10.5 °F /  -11.9 °C 8.1 °F /  -13.3 °C 1020.9 in /  34567.7 hPa NNW 1.6 mph /  2.6 km/h 4.8 mph /  7.7 km/h 85 % 0.0 in /  0 mm
00:32 10.4 °F /  -12 °C 8.0 °F /  -13.3 °C 1020.9 in /  34567.7 hPa Calm   3.2 mph /  5.1 km/h 85 % 0.0 in /  0 mm
00:42 10.2 °F /  -12.1 °C 8.0 °F /  -13.3 °C 1020.9 in /  34567.7 hPa Calm   1.6 mph /  2.6 km/h 86 % 0.0 in /  0 mm
00:47 10.1 °F /  -12.2 °C 8.0 °F /  -13.3 °C 1020.9 in /  34567.7 hPa NW 1.6 mph /  2.6 km/h 1.6 mph /  2.6 km/h 87 % 0.0 in /  0 mm
00:52 10.1 °F /  -12.2 °C 8.0 °F /  -13.3 °C 1020.9 in /  34567.7 hPa Calm   3.2 mph /  5.1 km/h 87 % 0.0 in /  0 mm
00:57 10.2 °F /  -12.1 °C 8.1 °F /  -13.3 °C 1020.5 in /  34554.1 hPa Calm   3.2 mph /  5.1 km/h 87 % 0.0 in /  0 mm
01:02 10.2 °F /  -12.1 °C 8.1 °F /  -13.3 °C 1020.5 in /  34554.1 hPa Calm   3.2 mph /  5.1 km/h 87 % 0.0 in /  0 mm
01:07 10.3 °F /  -12.1 °C 8.2 °F /  -13.2 °C 1020.5 in /  34554.1 hPa Calm   8.0 mph /  12.9 km/h 87 % 0.0 in /  0 mm
01:12 10.3 °F /  -12.1 °C 8.2 °F /  -13.2 °C 1020.5 in /  34554.1 hPa NW 3.2 mph /  5.1 km/h 8.0 mph /  12.9 km/h 87 % 0.0 in /  0 mm
01:17 10.2 °F /  -12.1 °C 8.1 °F /  -13.3 °C 1020.5 in /  34554.1 hPa NW 6.4 mph /  10.3 km/h 6.4 mph /  10.3 km/h 87 % 0.0 in /  0 mm
01:27 9.9 °F /  -12.3 °C 8.0 °F /  -13.3 °C 1020.5 in /  34554.1 hPa Calm   6.4 mph /  10.3 km/h 88 % 0.0 in /  0 mm
01:32 9.8 °F /  -12.3 °C 8.1 °F /  -13.3 °C 1020.5 in /  34554.1 hPa Calm   6.4 mph /  10.3 km/h 89 % 0.0 in /  0 mm
01:42 9.6 °F /  -12.4 °C 8.0 °F /  -13.3 °C 1020.5 in /  34554.1 hPa Calm   6.4 mph /  10.3 km/h 90 % 0.0 in /  0 mm
01:47 9.5 °F /  -12.5 °C 7.9 °F /  -13.4 °C 1020.5 in /  34554.1 hPa Calm   6.4 mph /  10.3 km/h 90 % 0.0 in /  0 mm
01:52 9.4 °F /  -12.6 °C 7.8 °F /  -13.4 °C 1020.9 in /  34567.7 hPa WNW 3.2 mph /  5.1 km/h 4.8 mph /  7.7 km/h 90 % 0.0 in /  0 mm
01:57 9.3 °F /  -12.6 °C 7.9 °F /  -13.4 °C 1020.9 in /  34567.7 hPa WNW 3.2 mph /  5.1 km/h 3.2 mph /  5.1 km/h 91 % 0.0 in /  0 mm
02:02 9.2 °F /  -12.7 °C 7.8 °F /  -13.4 °C 1020.9 in /  34567.7 hPa Calm   3.2 mph /  5.1 km/h 91 % 0.0 in /  0 mm
02:12 9.0 °F /  -12.8 °C 7.6 °F /  -13.6 °C 1020.9 in /  34567.7 hPa Calm   3.2 mph /  5.1 km/h 91 % 0.0 in /  0 mm
02:17 8.9 °F /  -12.8 °C 7.5 °F /  -13.6 °C 1020.9 in /  34567.7 hPa Calm   1.6 mph /  2.6 km/h 91 % 0.0 in /  0 mm
02:22 8.8 °F /  -12.9 °C 7.6 °F /  -13.6 °C 1020.9 in /  34567.7 hPa Calm   1.6 mph /  2.6 km/h 92 % 0.0 in /  0 mm
02:27 8.7 °F /  -12.9 °C 7.5 °F /  -13.6 °C 1020.9 in /  34567.7 hPa West 1.6 mph /  2.6 km/h 1.6 mph /  2.6 km/h 92 % 0.0 in /  0 mm
02:32 8.7 °F /  -12.9 °C 7.5 °F /  -13.6 °C 1020.9 in /  34567.7 hPa WNW 1.6 mph /  2.6 km/h 1.6 mph /  2.6 km/h 92 % 0.0 in /  0 mm
02:42 8.7 °F /  -12.9 °C 7.6 °F /  -13.6 °C 1020.9 in /  34567.7 hPa Calm   1.6 mph /  2.6 km/h 93 % 0.0 in /  0 mm
02:47 8.6 °F /  -13 °C 7.5 °F /  -13.6 °C 1020.9 in /  34567.7 hPa Calm   1.6 mph /  2.6 km/h 93 % 0.0 in /  0 mm
02:52 8.6 °F /  -13 °C 7.5 °F /  -13.6 °C 1020.9 in /  34567.7 hPa Calm   1.6 mph /  2.6 km/h 93 % 0.0 in /  0 mm
02:57 8.6 °F /  -13 °C 7.5 °F /  -13.6 °C 1020.9 in /  34567.7 hPa Calm     93 % 0.0 in /  0 mm
03:02 8.7 °F /  -12.9 °C 7.8 °F /  -13.4 °C 1020.9 in /  34567.7 hPa Calm     94 % 0.0 in /  0 mm
03:07 8.7 °F /  -12.9 °C 7.6 °F /  -13.6 °C 1020.9 in /  34567.7 hPa Calm   1.6 mph /  2.6 km/h 93 % 0.0 in /  0 mm
03:12 8.7 °F /  -12.9 °C 7.8 °F /  -13.4 °C 1020.9 in /  34567.7 hPa Calm   3.2 mph /  5.1 km/h 94 % 0.0 in /  0 mm
03:17 8.7 °F /  -12.9 °C 7.6 °F /  -13.6 °C 1020.9 in /  34567.7 hPa Calm   3.2 mph /  5.1 km/h 93 % 0.0 in /  0 mm
03:22 8.6 °F /  -13 °C 7.7 °F /  -13.5 °C 1020.9 in /  34567.7 hPa Calm   1.6 mph /  2.6 km/h 94 % 0.0 in /  0 mm
03:32 8.6 °F /  -13 °C 7.7 °F /  -13.5 °C 1020.5 in /  34554.1 hPa Calm   1.6 mph /  2.6 km/h 94 % 0.0 in /  0 mm
03:37 8.6 °F /  -13 °C 7.7 °F /  -13.5 °C 1020.9 in /  34567.7 hPa Calm     94 % 0.0 in /  0 mm
03:42 8.6 °F /  -13 °C 7.7 °F /  -13.5 °C 1020.5 in /  34554.1 hPa Calm     94 % 0.0 in /  0 mm
03:52 8.6 °F /  -13 °C 7.7 °F /  -13.5 °C 1020.5 in /  34554.1 hPa Calm   1.6 mph /  2.6 km/h 94 % 0.0 in /  0 mm
03:57 8.6 °F /  -13 °C 7.7 °F /  -13.5 °C 1020.5 in /  34554.1 hPa Calm   3.2 mph /  5.1 km/h 94 % 0.0 in /  0 mm
04:02 8.6 °F /  -13 °C 7.7 °F /  -13.5 °C 1020.5 in /  34554.1 hPa NNW 3.2 mph /  5.1 km/h 3.2 mph /  5.1 km/h 94 % 0.0 in /  0 mm
04:07 8.7 °F /  -12.9 °C 7.8 °F /  -13.4 °C 1020.5 in /  34554.1 hPa Calm   4.8 mph /  7.7 km/h 94 % 0.0 in /  0 mm
04:12 8.7 °F /  -12.9 °C 7.9 °F /  -13.4 °C 1020.9 in /  34567.7 hPa Calm   4.8 mph /  7.7 km/h 95 % 0.0 in /  0 mm
04:17 8.8 °F /  -12.9 °C 7.9 °F /  -13.4 °C 1020.5 in /  34554.1 hPa WNW 1.6 mph /  2.6 km/h 4.8 mph /  7.7 km/h 94 % 0.0 in /  0 mm
04:22 8.8 °F /  -12.9 °C 7.9 °F /  -13.4 °C 1020.5 in /  34554.1 hPa Calm   4.8 mph /  7.7 km/h 94 % 0.0 in /  0 mm
04:27 8.9 °F /  -12.8 °C 8.0 °F /  -13.3 °C 1020.5 in /  34554.1 hPa Calm   4.8 mph /  7.7 km/h 94 % 0.0 in /  0 mm
04:32 8.9 °F /  -12.8 °C 8.0 °F /  -13.3 °C 1020.5 in /  34554.1 hPa Calm   4.8 mph /  7.7 km/h 94 % 0.0 in /  0 mm
04:37 8.9 °F /  -12.8 °C 8.0 °F /  -13.3 °C 1020.5 in /  34554.1 hPa Calm   6.4 mph /  10.3 km/h 94 % 0.0 in /  0 mm
04:42 8.9 °F /  -12.8 °C 8.0 °F /  -13.3 °C 1020.5 in /  34554.1 hPa NW 1.6 mph /  2.6 km/h 6.4 mph /  10.3 km/h 94 % 0.0 in /  0 mm
04:47 9.0 °F /  -12.8 °C 8.1 °F /  -13.3 °C 1020.5 in /  34554.1 hPa Calm   3.2 mph /  5.1 km/h 94 % 0.0 in /  0 mm
04:52 9.1 °F /  -12.7 °C 8.3 °F /  -13.2 °C 1020.5 in /  34554.1 hPa WNW 1.6 mph /  2.6 km/h 3.2 mph /  5.1 km/h 95 % 0.0 in /  0 mm
05:02 9.2 °F /  -12.7 °C 8.3 °F /  -13.2 °C 1020.5 in /  34554.1 hPa Calm   4.8 mph /  7.7 km/h 94 % 0.0 in /  0 mm
05:12 9.0 °F /  -12.8 °C 8.1 °F /  -13.3 °C 1020.5 in /  34554.1 hPa Calm   4.8 mph /  7.7 km/h 94 % 0.0 in /  0 mm
05:17 8.9 °F /  -12.8 °C 8.0 °F /  -13.3 °C 1020.5 in /  34554.1 hPa Calm   1.6 mph /  2.6 km/h 94 % 0.0 in /  0 mm
05:22 8.9 °F /  -12.8 °C 8.0 °F /  -13.3 °C 1020.5 in /  34554.1 hPa Calm   1.6 mph /  2.6 km/h 94 % 0.0 in /  0 mm
05:32 8.8 °F /  -12.9 °C 7.9 °F /  -13.4 °C 1020.5 in /  34554.1 hPa Calm   1.6 mph /  2.6 km/h 94 % 0.0 in /  0 mm
05:42 8.7 °F /  -12.9 °C 7.8 °F /  -13.4 °C 1020.5 in /  34554.1 hPa Calm   1.6 mph /  2.6 km/h 94 % 0.0 in /  0 mm
05:47 8.6 °F /  -13 °C 7.7 °F /  -13.5 °C 1020.5 in /  34554.1 hPa Calm     94 % 0.0 in /  0 mm
05:52 8.6 °F /  -13 °C 7.8 °F /  -13.4 °C 1020.5 in /  34554.1 hPa Calm     95 % 0.0 in /  0 mm
06:02 8.6 °F /  -13 °C 7.8 °F /  -13.4 °C 1020.5 in /  34554.1 hPa Calm     95 % 0.0 in /  0 mm
06:12 8.5 °F /  -13.1 °C 7.7 °F /  -13.5 °C 1020.5 in /  34554.1 hPa Calm     95 % 0.0 in /  0 mm
06:17 8.5 °F /  -13.1 °C 7.7 °F /  -13.5 °C 1020.5 in /  34554.1 hPa Calm     95 % 0.0 in /  0 mm
06:22 8.4 °F /  -13.1 °C 7.6 °F /  -13.6 °C 1020.5 in /  34554.1 hPa Calm     95 % 0.0 in /  0 mm
06:32 8.4 °F /  -13.1 °C 7.6 °F /  -13.6 °C 1020.5 in /  34554.1 hPa Calm     95 % 0.0 in /  0 mm
06:42 8.4 °F /  -13.1 °C 7.6 °F /  -13.6 °C 1020.9 in /  34567.7 hPa Calm   1.6 mph /  2.6 km/h 95 % 0.0 in /  0 mm
06:47 8.5 °F /  -13.1 °C 7.7 °F /  -13.5 °C 1020.9 in /  34567.7 hPa Calm   1.6 mph /  2.6 km/h 95 % 0.0 in /  0 mm
06:52 8.5 °F /  -13.1 °C 7.9 °F /  -13.4 °C 1020.9 in /  34567.7 hPa Calm   1.6 mph /  2.6 km/h 96 % 0.0 in /  0 mm
07:02 8.6 °F /  -13 °C 8.0 °F /  -13.3 °C 1020.5 in /  34554.1 hPa Calm   1.6 mph /  2.6 km/h 96 % 0.0 in /  0 mm
07:12 8.7 °F /  -12.9 °C 8.1 °F /  -13.3 °C 1020.5 in /  34554.1 hPa West 1.6 mph /  2.6 km/h 3.2 mph /  5.1 km/h 96 % 0.0 in /  0 mm
07:17 8.7 °F /  -12.9 °C 8.1 °F /  -13.3 °C 1020.5 in /  34554.1 hPa Calm   3.2 mph /  5.1 km/h 96 % 0.0 in /  0 mm
07:22 8.8 °F /  -12.9 °C 8.2 °F /  -13.2 °C 1020.9 in /  34567.7 hPa West 4.8 mph /  7.7 km/h 4.8 mph /  7.7 km/h 96 % 0.0 in /  0 mm
07:32 9.0 °F /  -12.8 °C 8.4 °F /  -13.1 °C 1020.9 in /  34567.7 hPa West 3.2 mph /  5.1 km/h 4.8 mph /  7.7 km/h 96 % 0.0 in /  0 mm
07:37 9.1 °F /  -12.7 °C 8.5 °F /  -13.1 °C 1020.9 in /  34567.7 hPa West 1.6 mph /  2.6 km/h 6.4 mph /  10.3 km/h 96 % 0.0 in /  0 mm
07:42 9.2 °F /  -12.7 °C 8.6 °F /  -13 °C 1020.9 in /  34567.7 hPa West 1.6 mph /  2.6 km/h 6.4 mph /  10.3 km/h 96 % 0.0 in /  0 mm
07:47 9.2 °F /  -12.7 °C 8.6 °F /  -13 °C 1020.5 in /  34554.1 hPa Calm   6.4 mph /  10.3 km/h 96 % 0.0 in /  0 mm
07:52 9.2 °F /  -12.7 °C 8.6 °F /  -13 °C 1020.9 in /  34567.7 hPa West 1.6 mph /  2.6 km/h 6.4 mph /  10.3 km/h 96 % 0.0 in /  0 mm
07:57 9.2 °F /  -12.7 °C 8.6 °F /  -13 °C 1020.9 in /  34567.7 hPa Calm   3.2 mph /  5.1 km/h 96 % 0.0 in /  0 mm
08:02 9.2 °F /  -12.7 °C 8.4 °F /  -13.1 °C 1020.9 in /  34567.7 hPa Calm   3.2 mph /  5.1 km/h 95 % 0.0 in /  0 mm
08:12 9.3 °F /  -12.6 °C 8.5 °F /  -13.1 °C 1020.9 in /  34567.7 hPa Calm   3.2 mph /  5.1 km/h 95 % 0.0 in /  0 mm
08:17 9.3 °F /  -12.6 °C 8.5 °F /  -13.1 °C 1020.9 in /  34567.7 hPa Calm     95 % 0.0 in /  0 mm
08:22 9.3 °F /  -12.6 °C 8.5 °F /  -13.1 °C 1020.9 in /  34567.7 hPa Calm     95 % 0.0 in /  0 mm
08:32 9.3 °F /  -12.6 °C 8.5 °F /  -13.1 °C 1020.9 in /  34567.7 hPa Calm     95 % 0.0 in /  0 mm
08:42 9.3 °F /  -12.6 °C 8.5 °F /  -13.1 °C 1020.9 in /  34567.7 hPa Calm     95 % 0.3 in /  7.62 mm
08:52 9.3 °F /  -12.6 °C 8.5 °F /  -13.1 °C 1021.2 in /  34577.8 hPa Calm     95 % 0.3 in /  7.62 mm
08:57 9.4 °F /  -12.6 °C 8.6 °F /  -13 °C 1021.2 in /  34577.8 hPa Calm     95 % 0.3 in /  7.62 mm
09:02 9.4 °F /  -12.6 °C 8.6 °F /  -13 °C 1021.6 in /  34591.4 hPa WNW 1.6 mph /  2.6 km/h   95 % 0.3 in /  7.62 mm
09:12 9.4 °F /  -12.6 °C 8.6 °F /  -13 °C 1021.6 in /  34591.4 hPa North 12.9 mph /  20.8 km/h 12.9 mph /  20.8 km/h 95 % 2.3 in /  58.42 mm
09:17 9.4 °F /  -12.6 °C 8.6 °F /  -13 °C 1021.6 in /  34591.4 hPa WNW 8.0 mph /  12.9 km/h 17.7 mph /  28.5 km/h 95 % 5.1 in /  129.54 mm
09:22 9.4 °F /  -12.6 °C 8.6 °F /  -13 °C 1021.6 in /  34591.4 hPa WNW 6.4 mph /  10.3 km/h 17.7 mph /  28.5 km/h 95 % 5.1 in /  129.54 mm
09:32 9.4 °F /  -12.6 °C 8.5 °F /  -13.1 °C 1021.6 in /  34591.4 hPa NW 3.2 mph /  5.1 km/h 17.7 mph /  28.5 km/h 94 % 5.8 in /  147.32 mm
09:42 9.3 °F /  -12.6 °C 8.4 °F /  -13.1 °C 1021.6 in /  34591.4 hPa SW 4.8 mph /  7.7 km/h 12.9 mph /  20.8 km/h 94 % 6.1 in /  154.94 mm
09:47 9.3 °F /  -12.6 °C 8.4 °F /  -13.1 °C 1021.2 in /  34577.8 hPa SW 3.2 mph /  5.1 km/h 12.9 mph /  20.8 km/h 94 % 6.6 in /  167.64 mm
09:52 9.3 °F /  -12.6 °C 8.4 °F /  -13.1 °C 1021.2 in /  34577.8 hPa WSW 1.6 mph /  2.6 km/h 12.9 mph /  20.8 km/h 94 % 6.6 in /  167.64 mm
10:02 9.3 °F /  -12.6 °C 8.4 °F /  -13.1 °C 1021.2 in /  34577.8 hPa South 1.6 mph /  2.6 km/h 9.7 mph /  15.6 km/h 94 % 6.1 in /  154.94 mm
10:12 9.4 °F /  -12.6 °C 8.5 °F /  -13.1 °C 1021.6 in /  34591.4 hPa Calm   8.0 mph /  12.9 km/h 94 % 4.3 in /  109.22 mm
10:17 9.6 °F /  -12.4 °C 8.7 °F /  -12.9 °C 1021.6 in /  34591.4 hPa Calm   4.8 mph /  7.7 km/h 94 % 2.0 in /  50.8 mm
10:22 9.7 °F /  -12.4 °C 8.8 °F /  -12.9 °C 1021.6 in /  34591.4 hPa Calm   4.8 mph /  7.7 km/h 94 % 2.0 in /  50.8 mm
10:32 9.9 °F /  -12.3 °C 8.8 °F /  -12.9 °C 1021.6 in /  34591.4 hPa Calm   3.2 mph /  5.1 km/h 93 % 1.5 in /  38.1 mm
10:42 10.1 °F /  -12.2 °C 8.9 °F /  -12.8 °C 1021.6 in /  34591.4 hPa Calm   1.6 mph /  2.6 km/h 92 % 0.5 in /  12.7 mm
10:52 10.6 °F /  -11.9 °C 9.4 °F /  -12.6 °C 1021.6 in /  34591.4 hPa Calm   3.2 mph /  5.1 km/h 92 % 0.3 in /  7.62 mm
11:02 11.0 °F /  -11.7 °C 9.3 °F /  -12.6 °C 1021.9 in /  34601.5 hPa Calm   3.2 mph /  5.1 km/h 89 % 0.0 in /  0 mm
11:12 11.6 °F /  -11.3 °C 9.5 °F /  -12.5 °C 1021.6 in /  34591.4 hPa Calm   4.8 mph /  7.7 km/h 87 % 0.0 in /  0 mm
11:17 11.9 °F /  -11.2 °C 9.8 °F /  -12.3 °C 1021.6 in /  34591.4 hPa NE 1.6 mph /  2.6 km/h 6.4 mph /  10.3 km/h 87 % 0.0 in /  0 mm
11:22 11.9 °F /  -11.2 °C 9.3 °F /  -12.6 °C 1021.6 in /  34591.4 hPa NE 1.6 mph /  2.6 km/h 6.4 mph /  10.3 km/h 84 % 0.0 in /  0 mm
11:32 12.2 °F /  -11 °C 9.8 °F /  -12.3 °C 1021.6 in /  34591.4 hPa ENE 3.2 mph /  5.1 km/h 8.0 mph /  12.9 km/h 85 % 0.0 in /  0 mm
11:42 12.3 °F /  -10.9 °C 9.5 °F /  -12.5 °C 1021.6 in /  34591.4 hPa Calm   8.0 mph /  12.9 km/h 83 % 0.0 in /  0 mm
11:47 12.7 °F /  -10.7 °C 10.1 °F /  -12.2 °C 1021.9 in /  34601.5 hPa Calm   8.0 mph /  12.9 km/h 84 % 0.0 in /  0 mm
11:52 12.9 °F /  -10.6 °C 9.9 °F /  -12.3 °C 1021.9 in /  34601.5 hPa Calm   8.0 mph /  12.9 km/h 82 % 0.0 in /  0 mm
11:57 13.1 °F /  -10.5 °C 9.9 °F /  -12.3 °C 1021.9 in /  34601.5 hPa NE 3.2 mph /  5.1 km/h 4.8 mph /  7.7 km/h 81 % 0.0 in /  0 mm
12:02 13.3 °F /  -10.4 °C 10.1 °F /  -12.2 °C 1021.9 in /  34601.5 hPa NE 3.2 mph /  5.1 km/h 4.8 mph /  7.7 km/h 81 % 0.0 in /  0 mm
12:12 13.5 °F /  -10.3 °C 10.1 °F /  -12.2 °C 1021.9 in /  34601.5 hPa Calm   6.4 mph /  10.3 km/h 80 % 0.0 in /  0 mm
12:17 13.7 °F /  -10.2 °C 9.7 °F /  -12.4 °C 1021.9 in /  34601.5 hPa North 3.2 mph /  5.1 km/h 9.7 mph /  15.6 km/h 77 % 0.0 in /  0 mm
12:22 13.6 °F /  -10.2 °C 9.6 °F /  -12.4 °C 1021.9 in /  34601.5 hPa Calm   9.7 mph /  15.6 km/h 77 % 0.0 in /  0 mm
12:27 13.5 °F /  -10.3 °C 9.5 °F /  -12.5 °C 1021.9 in /  34601.5 hPa WNW 1.6 mph /  2.6 km/h 9.7 mph /  15.6 km/h 77 % 0.0 in /  0 mm
12:32 13.3 °F /  -10.4 °C 9.9 °F /  -12.3 °C 1021.9 in /  34601.5 hPa West 6.4 mph /  10.3 km/h 9.7 mph /  15.6 km/h 80 % 0.0 in /  0 mm
12:42 12.6 °F /  -10.8 °C 10.0 °F /  -12.2 °C 1021.9 in /  34601.5 hPa WSW 4.8 mph /  7.7 km/h 9.7 mph /  15.6 km/h 84 % 0.0 in /  0 mm
12:47 12.4 °F /  -10.9 °C 9.9 °F /  -12.3 °C 1022.2 in /  34611.7 hPa WNW 6.4 mph /  10.3 km/h 9.7 mph /  15.6 km/h 85 % 0.0 in /  0 mm
12:52 12.4 °F /  -10.9 °C 9.9 °F /  -12.3 °C 1022.2 in /  34611.7 hPa WSW 6.4 mph /  10.3 km/h 9.7 mph /  15.6 km/h 85 % 0.0 in /  0 mm
12:57 12.5 °F /  -10.8 °C 9.7 °F /  -12.4 °C 1022.2 in /  34611.7 hPa WNW 6.4 mph /  10.3 km/h 9.7 mph /  15.6 km/h 83 % 0.0 in /  0 mm
13:02 12.6 °F /  -10.8 °C 9.2 °F /  -12.7 °C 1022.2 in /  34611.7 hPa WNW 6.4 mph /  10.3 km/h 9.7 mph /  15.6 km/h 80 % 0.0 in /  0 mm
13:12 13.1 °F /  -10.5 °C 9.2 °F /  -12.7 °C 1021.9 in /  34601.5 hPa West 1.6 mph /  2.6 km/h 12.9 mph /  20.8 km/h 77 % 0.0 in /  0 mm
13:17 13.3 °F /  -10.4 °C 9.4 °F /  -12.6 °C 1021.9 in /  34601.5 hPa West 9.7 mph /  15.6 km/h 12.9 mph /  20.8 km/h 77 % 0.0 in /  0 mm
13:22 13.5 °F /  -10.3 °C 9.4 °F /  -12.6 °C 1021.9 in /  34601.5 hPa WNW 4.8 mph /  7.7 km/h 12.9 mph /  20.8 km/h 76 % 0.0 in /  0 mm
13:32 13.7 °F /  -10.2 °C 9.7 °F /  -12.4 °C 1022.2 in /  34611.7 hPa WNW 4.8 mph /  7.7 km/h 14.5 mph /  23.3 km/h 77 % 0.0 in /  0 mm
13:37 13.9 °F /  -10.1 °C 9.7 °F /  -12.4 °C 1022.2 in /  34611.7 hPa Calm   19.3 mph /  31.1 km/h 76 % 0.0 in /  0 mm
13:42 14.2 °F /  -9.9 °C 10.0 °F /  -12.2 °C 1022.2 in /  34611.7 hPa WSW 9.7 mph /  15.6 km/h 19.3 mph /  31.1 km/h 76 % 0.0 in /  0 mm
13:47 14.6 °F /  -9.7 °C 10.6 °F /  -11.9 °C 1022.2 in /  34611.7 hPa WNW 9.7 mph /  15.6 km/h 12.9 mph /  20.8 km/h 77 % 0.0 in /  0 mm
13:52 14.1 °F /  -9.9 °C 9.5 °F /  -12.5 °C 1022.2 in /  34611.7 hPa WNW 4.8 mph /  7.7 km/h 17.7 mph /  28.5 km/h 74 % 0.0 in /  0 mm
13:57 14.2 °F /  -9.9 °C 10.0 °F /  -12.2 °C 1022.2 in /  34611.7 hPa West 6.4 mph /  10.3 km/h 17.7 mph /  28.5 km/h 76 % 0.0 in /  0 mm
14:02 14.2 °F /  -9.9 °C 10.0 °F /  -12.2 °C 1022.6 in /  34625.2 hPa WNW 9.7 mph /  15.6 km/h 17.7 mph /  28.5 km/h 76 % 0.0 in /  0 mm
14:07 14.3 °F /  -9.8 °C 9.9 °F /  -12.3 °C 1022.2 in /  34611.7 hPa NNW 6.4 mph /  10.3 km/h 17.7 mph /  28.5 km/h 75 % 0.0 in /  0 mm
14:12 14.4 °F /  -9.8 °C 9.8 °F /  -12.3 °C 1022.2 in /  34611.7 hPa North 1.6 mph /  2.6 km/h 17.7 mph /  28.5 km/h 74 % 0.0 in /  0 mm
14:17 14.3 °F /  -9.8 °C 9.9 °F /  -12.3 °C 1022.2 in /  34611.7 hPa West 8.0 mph /  12.9 km/h 17.7 mph /  28.5 km/h 75 % 0.0 in /  0 mm
14:22 14.3 °F /  -9.8 °C 9.5 °F /  -12.5 °C 1022.2 in /  34611.7 hPa WNW 3.2 mph /  5.1 km/h 17.7 mph /  28.5 km/h 73 % 0.0 in /  0 mm
14:27 14.6 °F /  -9.7 °C 9.8 °F /  -12.3 °C 1022.2 in /  34611.7 hPa NNE 3.2 mph /  5.1 km/h 17.7 mph /  28.5 km/h 73 % 0.0 in /  0 mm
14:37 15.1 °F /  -9.4 °C 9.9 °F /  -12.3 °C 1022.2 in /  34611.7 hPa NNW 8.0 mph /  12.9 km/h 12.9 mph /  20.8 km/h 71 % 0.0 in /  0 mm
14:42 14.8 °F /  -9.6 °C 9.8 °F /  -12.3 °C 1022.2 in /  34611.7 hPa North 9.7 mph /  15.6 km/h 14.5 mph /  23.3 km/h 72 % 0.0 in /  0 mm
14:52 14.3 °F /  -9.8 °C 9.5 °F /  -12.5 °C 1022.6 in /  34625.2 hPa WNW 4.8 mph /  7.7 km/h 14.5 mph /  23.3 km/h 73 % 0.0 in /  0 mm
15:02 14.3 °F /  -9.8 °C 9.7 °F /  -12.4 °C 1022.2 in /  34611.7 hPa NW 3.2 mph /  5.1 km/h 14.5 mph /  23.3 km/h 74 % 0.0 in /  0 mm
15:07 14.3 °F /  -9.8 °C 9.7 °F /  -12.4 °C 1022.2 in /  34611.7 hPa North 3.2 mph /  5.1 km/h 12.9 mph /  20.8 km/h 74 % 0.0 in /  0 mm
15:12 14.4 °F /  -9.8 °C 9.2 °F /  -12.7 °C 1022.2 in /  34611.7 hPa WNW 4.8 mph /  7.7 km/h 12.9 mph /  20.8 km/h 71 % 0.0 in /  0 mm
15:17 14.6 °F /  -9.7 °C 9.4 °F /  -12.6 °C 1022.2 in /  34611.7 hPa WNW 9.7 mph /  15.6 km/h 12.9 mph /  20.8 km/h 71 % 0.0 in /  0 mm
15:22 14.7 °F /  -9.6 °C 9.1 °F /  -12.7 °C 1022.2 in /  34611.7 hPa WNW 6.4 mph /  10.3 km/h 17.7 mph /  28.5 km/h 69 % 0.0 in /  0 mm
15:32 14.4 °F /  -9.8 °C 9.2 °F /  -12.7 °C 1022.2 in /  34611.7 hPa West 1.6 mph /  2.6 km/h 17.7 mph /  28.5 km/h 71 % 0.0 in /  0 mm
15:37 14.3 °F /  -9.8 °C 9.3 °F /  -12.6 °C 1022.2 in /  34611.7 hPa NW 3.2 mph /  5.1 km/h 17.7 mph /  28.5 km/h 72 % 0.0 in /  0 mm
15:42 14.3 °F /  -9.8 °C 9.3 °F /  -12.6 °C 1022.2 in /  34611.7 hPa NNE 9.7 mph /  15.6 km/h 17.7 mph /  28.5 km/h 72 % 0.0 in /  0 mm
15:47 14.2 °F /  -9.9 °C 9.2 °F /  -12.7 °C 1022.2 in /  34611.7 hPa NW 4.8 mph /  7.7 km/h 11.3 mph /  18.2 km/h 72 % 0.0 in /  0 mm
15:52 14.2 °F /  -9.9 °C 9.6 °F /  -12.4 °C 1022.2 in /  34611.7 hPa WNW 6.4 mph /  10.3 km/h 14.5 mph /  23.3 km/h 74 % 0.0 in /  0 mm
16:02 14.1 °F /  -9.9 °C 9.1 °F /  -12.7 °C 1022.2 in /  34611.7 hPa WNW 4.8 mph /  7.7 km/h 14.5 mph /  23.3 km/h 72 % 0.0 in /  0 mm
16:07 14.0 °F /  -10 °C 9.4 °F /  -12.6 °C 1022.2 in /  34611.7 hPa NW 4.8 mph /  7.7 km/h 12.9 mph /  20.8 km/h 74 % 0.0 in /  0 mm
16:12 14.1 °F /  -9.9 °C 9.9 °F /  -12.3 °C 1022.2 in /  34611.7 hPa NNW 4.8 mph /  7.7 km/h 12.9 mph /  20.8 km/h 76 % 0.0 in /  0 mm
16:17 14.0 °F /  -10 °C 9.4 °F /  -12.6 °C 1022.2 in /  34611.7 hPa NW 3.2 mph /  5.1 km/h 12.9 mph /  20.8 km/h 74 % 0.0 in /  0 mm
16:22 13.9 °F /  -10.1 °C 9.1 °F /  -12.7 °C 1022.2 in /  34611.7 hPa WNW 1.6 mph /  2.6 km/h 12.9 mph /  20.8 km/h 73 % 0.0 in /  0 mm
16:32 13.7 °F /  -10.2 °C 8.9 °F /  -12.8 °C 1022.2 in /  34611.7 hPa WNW 3.2 mph /  5.1 km/h 12.9 mph /  20.8 km/h 73 % 0.0 in /  0 mm
16:37 13.7 °F /  -10.2 °C 9.1 °F /  -12.7 °C 1022.2 in /  34611.7 hPa West 3.2 mph /  5.1 km/h 11.3 mph /  18.2 km/h 74 % 0.0 in /  0 mm
16:42 13.6 °F /  -10.2 °C 9.1 °F /  -12.7 °C 1022.2 in /  34611.7 hPa NW 4.8 mph /  7.7 km/h 11.3 mph /  18.2 km/h 74 % 0.0 in /  0 mm
16:52 13.6 °F /  -10.2 °C 9.4 °F /  -12.6 °C 1022.2 in /  34611.7 hPa NW 6.4 mph /  10.3 km/h 12.9 mph /  20.8 km/h 76 % 0.0 in /  0 mm
17:02 13.6 °F /  -10.2 °C 9.4 °F /  -12.6 °C 1022.6 in /  34625.2 hPa WNW 4.8 mph /  7.7 km/h 11.3 mph /  18.2 km/h 76 % 0.0 in /  0 mm
17:07 13.6 °F /  -10.2 °C 9.4 °F /  -12.6 °C 1022.6 in /  34625.2 hPa WNW 3.2 mph /  5.1 km/h 12.9 mph /  20.8 km/h 76 % 0.0 in /  0 mm
17:12 13.6 °F /  -10.2 °C 9.3 °F /  -12.6 °C 1022.6 in /  34625.2 hPa NW 3.2 mph /  5.1 km/h 12.9 mph /  20.8 km/h 75 % 0.0 in /  0 mm
17:17 13.6 °F /  -10.2 °C 9.4 °F /  -12.6 °C 1022.6 in /  34625.2 hPa NNW 1.6 mph /  2.6 km/h 12.9 mph /  20.8 km/h 76 % 0.0 in /  0 mm
17:22 13.6 °F /  -10.2 °C 9.4 °F /  -12.6 °C 1022.6 in /  34625.2 hPa NW 3.2 mph /  5.1 km/h 8.0 mph /  12.9 km/h 76 % 0.0 in /  0 mm
17:32 13.5 °F /  -10.3 °C 9.2 °F /  -12.7 °C 1022.6 in /  34625.2 hPa NW 3.2 mph /  5.1 km/h 12.9 mph /  20.8 km/h 75 % 0.0 in /  0 mm
17:37 13.5 °F /  -10.3 °C 9.4 °F /  -12.6 °C 1022.6 in /  34625.2 hPa NW 4.8 mph /  7.7 km/h 12.9 mph /  20.8 km/h 76 % 0.0 in /  0 mm
17:42 13.5 °F /  -10.3 °C 9.5 °F /  -12.5 °C 1022.6 in /  34625.2 hPa WNW 1.6 mph /  2.6 km/h 12.9 mph /  20.8 km/h 77 % 0.0 in /  0 mm
17:52 13.5 °F /  -10.3 °C 9.5 °F /  -12.5 °C 1022.6 in /  34625.2 hPa WNW 4.8 mph /  7.7 km/h 9.7 mph /  15.6 km/h 77 % 0.0 in /  0 mm
17:57 13.5 °F /  -10.3 °C 9.5 °F /  -12.5 °C 1022.6 in /  34625.2 hPa Calm   9.7 mph /  15.6 km/h 77 % 0.0 in /  0 mm
18:02 13.5 °F /  -10.3 °C 9.5 °F /  -12.5 °C 1022.9 in /  34635.4 hPa NW 1.6 mph /  2.6 km/h 9.7 mph /  15.6 km/h 77 % 0.0 in /  0 mm
18:12 13.4 °F /  -10.3 °C 9.3 °F /  -12.6 °C 1022.9 in /  34635.4 hPa NW 6.4 mph /  10.3 km/h 11.3 mph /  18.2 km/h 76 % 0.0 in /  0 mm
18:17 13.4 °F /  -10.3 °C 9.3 °F /  -12.6 °C 1022.9 in /  34635.4 hPa WNW 1.6 mph /  2.6 km/h 11.3 mph /  18.2 km/h 76 % 0.0 in /  0 mm
18:22 13.4 °F /  -10.3 °C 9.4 °F /  -12.6 °C 1022.9 in /  34635.4 hPa WNW 1.6 mph /  2.6 km/h 11.3 mph /  18.2 km/h 77 % 0.0 in /  0 mm
18:32 13.6 °F /  -10.2 °C 9.6 °F /  -12.4 °C 1022.9 in /  34635.4 hPa West 4.8 mph /  7.7 km/h 11.3 mph /  18.2 km/h 77 % 0.0 in /  0 mm
18:37 13.7 °F /  -10.2 °C 9.7 °F /  -12.4 °C 1022.9 in /  34635.4 hPa NW 3.2 mph /  5.1 km/h 11.3 mph /  18.2 km/h 77 % 0.0 in /  0 mm
18:42 13.9 °F /  -10.1 °C 9.9 °F /  -12.3 °C 1022.9 in /  34635.4 hPa WNW 3.2 mph /  5.1 km/h 8.0 mph /  12.9 km/h 77 % 0.0 in /  0 mm
18:47 13.9 °F /  -10.1 °C 9.7 °F /  -12.4 °C 1022.9 in /  34635.4 hPa WNW 4.8 mph /  7.7 km/h 9.7 mph /  15.6 km/h 76 % 0.0 in /  0 mm
18:52 13.9 °F /  -10.1 °C 9.7 °F /  -12.4 °C 1022.9 in /  34635.4 hPa Calm   9.7 mph /  15.6 km/h 76 % 0.0 in /  0 mm
19:02 14.0 °F /  -10 °C 10.0 °F /  -12.2 °C 1023.2 in /  34645.6 hPa NW 3.2 mph /  5.1 km/h 9.7 mph /  15.6 km/h 77 % 0.0 in /  0 mm
19:07 13.9 °F /  -10.1 °C 9.9 °F /  -12.3 °C 1023.2 in /  34645.6 hPa WNW 1.6 mph /  2.6 km/h 9.7 mph /  15.6 km/h 77 % 0.0 in /  0 mm
19:12 13.7 °F /  -10.2 °C 9.9 °F /  -12.3 °C 1023.2 in /  34645.6 hPa West 4.8 mph /  7.7 km/h 9.7 mph /  15.6 km/h 78 % 0.0 in /  0 mm
19:17 13.3 °F /  -10.4 °C 9.7 °F /  -12.4 °C 1023.2 in /  34645.6 hPa NW 6.4 mph /  10.3 km/h 9.7 mph /  15.6 km/h 79 % 0.0 in /  0 mm
19:22 13.1 °F /  -10.5 °C 9.7 °F /  -12.4 °C 1023.6 in /  34659.1 hPa NNW 4.8 mph /  7.7 km/h 9.7 mph /  15.6 km/h 80 % 0.0 in /  0 mm
19:32 12.6 °F /  -10.8 °C 9.8 °F /  -12.3 °C 1023.2 in /  34645.6 hPa WNW 1.6 mph /  2.6 km/h 8.0 mph /  12.9 km/h 83 % 0.0 in /  0 mm
19:42 12.3 °F /  -10.9 °C 9.7 °F /  -12.4 °C 1023.6 in /  34659.1 hPa NNW 1.6 mph /  2.6 km/h 8.0 mph /  12.9 km/h 84 % 0.0 in /  0 mm
19:47 12.1 °F /  -11.1 °C 9.7 °F /  -12.4 °C 1023.6 in /  34659.1 hPa Calm   8.0 mph /  12.9 km/h 85 % 0.0 in /  0 mm
19:52 12.0 °F /  -11.1 °C 9.7 °F /  -12.4 °C 1023.6 in /  34659.1 hPa Calm   6.4 mph /  10.3 km/h 86 % 0.0 in /  0 mm
19:57 11.8 °F /  -11.2 °C 9.5 °F /  -12.5 °C 1023.9 in /  34669.3 hPa Calm   4.8 mph /  7.7 km/h 86 % 0.0 in /  0 mm
20:02 11.6 °F /  -11.3 °C 9.5 °F /  -12.5 °C 1023.9 in /  34669.3 hPa WNW 3.2 mph /  5.1 km/h 4.8 mph /  7.7 km/h 87 % 0.0 in /  0 mm
20:12 11.3 °F /  -11.5 °C 9.4 °F /  -12.6 °C 1023.9 in /  34669.3 hPa WNW 1.6 mph /  2.6 km/h 8.0 mph /  12.9 km/h 88 % 0.0 in /  0 mm
20:17 11.3 °F /  -11.5 °C 9.6 °F /  -12.4 °C 1023.9 in /  34669.3 hPa Calm   6.4 mph /  10.3 km/h 89 % 0.0 in /  0 mm
20:22 11.2 °F /  -11.6 °C 9.5 °F /  -12.5 °C 1023.9 in /  34669.3 hPa Calm   4.8 mph /  7.7 km/h 89 % 0.0 in /  0 mm
20:32 11.1 °F /  -11.6 °C 9.5 °F /  -12.5 °C 1023.9 in /  34669.3 hPa Calm   4.8 mph /  7.7 km/h 90 % 0.0 in /  0 mm
20:42 10.8 °F /  -11.8 °C 9.2 °F /  -12.7 °C 1024.3 in /  34682.8 hPa WNW 3.2 mph /  5.1 km/h 4.8 mph /  7.7 km/h 90 % 0.0 in /  0 mm
20:52 10.7 °F /  -11.8 °C 9.3 °F /  -12.6 °C 1024.3 in /  34682.8 hPa NNW 1.6 mph /  2.6 km/h 4.8 mph /  7.7 km/h 91 % 0.0 in /  0 mm
20:57 10.7 °F /  -11.8 °C 9.3 °F /  -12.6 °C 1024.3 in /  34682.8 hPa Calm   3.2 mph /  5.1 km/h 91 % 0.0 in /  0 mm
21:02 10.6 °F /  -11.9 °C 9.2 °F /  -12.7 °C 1024.3 in /  34682.8 hPa Calm   3.2 mph /  5.1 km/h 91 % 0.0 in /  0 mm
21:12 10.5 °F /  -11.9 °C 9.3 °F /  -12.6 °C 1024.3 in /  34682.8 hPa Calm   1.6 mph /  2.6 km/h 92 % 0.0 in /  0 mm
21:17 10.5 °F /  -11.9 °C 9.3 °F /  -12.6 °C 1024.3 in /  34682.8 hPa Calm   1.6 mph /  2.6 km/h 92 % 0.0 in /  0 mm
21:22 10.4 °F /  -12 °C 9.2 °F /  -12.7 °C 1024.6 in /  34693 hPa Calm   1.6 mph /  2.6 km/h 92 % 0.0 in /  0 mm
21:27 10.3 °F /  -12.1 °C 9.1 °F /  -12.7 °C 1024.6 in /  34693 hPa NW 3.2 mph /  5.1 km/h 3.2 mph /  5.1 km/h 92 % 0.0 in /  0 mm
21:32 10.3 °F /  -12.1 °C 9.1 °F /  -12.7 °C 1024.6 in /  34693 hPa NW 1.6 mph /  2.6 km/h 1.6 mph /  2.6 km/h 92 % 0.0 in /  0 mm
21:37 10.2 °F /  -12.1 °C 9.0 °F /  -12.8 °C 1024.6 in /  34693 hPa WNW 1.6 mph /  2.6 km/h 3.2 mph /  5.1 km/h 92 % 0.0 in /  0 mm
21:42 10.2 °F /  -12.1 °C 9.1 °F /  -12.7 °C 1024.6 in /  34693 hPa Calm   3.2 mph /  5.1 km/h 93 % 0.0 in /  0 mm
21:47 10.2 °F /  -12.1 °C 9.1 °F /  -12.7 °C 1024.6 in /  34693 hPa Calm   3.2 mph /  5.1 km/h 93 % 0.0 in /  0 mm
21:52 10.2 °F /  -12.1 °C 9.1 °F /  -12.7 °C 1024.6 in /  34693 hPa NW 1.6 mph /  2.6 km/h 1.6 mph /  2.6 km/h 93 % 0.0 in /  0 mm
21:57 10.2 °F /  -12.1 °C 9.1 °F /  -12.7 °C 1024.9 in /  34703.1 hPa Calm   3.2 mph /  5.1 km/h 93 % 0.0 in /  0 mm
22:02 10.3 °F /  -12.1 °C 9.2 °F /  -12.7 °C 1024.9 in /  34703.1 hPa NW 1.6 mph /  2.6 km/h 3.2 mph /  5.1 km/h 93 % 0.0 in /  0 mm
22:12 10.3 °F /  -12.1 °C 9.1 °F /  -12.7 °C 1024.9 in /  34703.1 hPa North 1.6 mph /  2.6 km/h 3.2 mph /  5.1 km/h 92 % 0.0 in /  0 mm
22:17 10.2 °F /  -12.1 °C 9.0 °F /  -12.8 °C 1024.9 in /  34703.1 hPa NNW 1.6 mph /  2.6 km/h 3.2 mph /  5.1 km/h 92 % 0.0 in /  0 mm
22:22 10.2 °F /  -12.1 °C 9.0 °F /  -12.8 °C 1024.9 in /  34703.1 hPa Calm   4.8 mph /  7.7 km/h 92 % 0.0 in /  0 mm
22:32 10.1 °F /  -12.2 °C 8.9 °F /  -12.8 °C 1024.9 in /  34703.1 hPa North 1.6 mph /  2.6 km/h 4.8 mph /  7.7 km/h 92 % 0.0 in /  0 mm
22:42 10.0 °F /  -12.2 °C 8.8 °F /  -12.9 °C 1024.9 in /  34703.1 hPa NNW 1.6 mph /  2.6 km/h 3.2 mph /  5.1 km/h 92 % 0.0 in /  0 mm
22:52 10.0 °F /  -12.2 °C 8.8 °F /  -12.9 °C 1024.9 in /  34703.1 hPa Calm   4.8 mph /  7.7 km/h 92 % 0.0 in /  0 mm
22:57 10.1 °F /  -12.2 °C 8.9 °F /  -12.8 °C 1024.9 in /  34703.1 hPa NW 1.6 mph /  2.6 km/h 4.8 mph /  7.7 km/h 92 % 0.0 in /  0 mm
23:02 10.1 °F /  -12.2 °C 8.9 °F /  -12.8 °C 1024.9 in /  34703.1 hPa NW 1.6 mph /  2.6 km/h 4.8 mph /  7.7 km/h 92 % 0.0 in /  0 mm
23:07 10.1 °F /  -12.2 °C 8.9 °F /  -12.8 °C 1024.9 in /  34703.1 hPa NW 3.2 mph /  5.1 km/h 4.8 mph /  7.7 km/h 92 % 0.0 in /  0 mm
23:12 10.1 °F /  -12.2 °C 8.9 °F /  -12.8 °C 1024.9 in /  34703.1 hPa NW 3.2 mph /  5.1 km/h 4.8 mph /  7.7 km/h 92 % 0.0 in /  0 mm
23:17 10.2 °F /  -12.1 °C 9.0 °F /  -12.8 °C 1024.9 in /  34703.1 hPa NW 1.6 mph /  2.6 km/h 4.8 mph /  7.7 km/h 92 % 0.0 in /  0 mm
23:22 10.2 °F /  -12.1 °C 8.8 °F /  -12.9 °C 1024.9 in /  34703.1 hPa NW 1.6 mph /  2.6 km/h 4.8 mph /  7.7 km/h 91 % 0.0 in /  0 mm
23:32 9.9 °F /  -12.3 °C 8.3 °F /  -13.2 °C 1024.9 in /  34703.1 hPa Calm   3.2 mph /  5.1 km/h 90 % 0.0 in /  0 mm
23:37 9.4 °F /  -12.6 °C 7.8 °F /  -13.4 °C 1024.9 in /  34703.1 hPa Calm   3.2 mph /  5.1 km/h 90 % 0.0 in /  0 mm
23:42 9.3 °F /  -12.6 °C 7.9 °F /  -13.4 °C 1024.9 in /  34703.1 hPa Calm   3.2 mph /  5.1 km/h 91 % 0.0 in /  0 mm
23:47 9.2 °F /  -12.7 °C 8.0 °F /  -13.3 °C 1024.9 in /  34703.1 hPa Calm   1.6 mph /  2.6 km/h 92 % 0.0 in /  0 mm
23:52 9.2 °F /  -12.7 °C 8.1 °F /  -13.3 °C 1024.9 in /  34703.1 hPa Calm   1.6 mph /  2.6 km/h 93 % 0.0 in /  0 mm
Meteo18
Compliments of Weather Underground - 4 mb

Script developed by  Jim McMurry - jmcmurry@mwt.net Adapted for the template by  Wim van der Kuil - Leuven-Template.eu

You find our weather info also at:

European Weather Network

Weather Underground

Equipment we use:

Weather-station
Davis Vue

Weather-program
Meteobridge

Weather-server
Raspberry PI 2 B+

Provider
1 and 1

Davis Vue

Meteobridge

Raspberry PI 2 B+

1 and 1